Time;durP1;ratioP1;P1;durP2;ratioP2;P2;SDS_P1;SDS_P2;PMS_P1;PMS_P2;Temp;Humidity;BMP_temperature;BMP_pressure;BME280_temperature;BME280_humidity;BME280_pressure;Samples;Min_cycle;Max_cycle;Signal;HPM_P1;HPM_P2
2022/08/10 00:00:57;;;;;;;2.92;2.58;;;;;;;;;;5015161;28;20111;-74
2022/08/10 00:03:24;;;;;;;3.33;2.67;;;;;;;;;;5014922;28;20413;-73
2022/08/10 00:05:53;;;;;;;3.20;2.50;;;;;;;;;;5015251;28;20501;-74
2022/08/10 00:08:20;;;;;;;3.05;2.50;;;;;;;;;;5004514;28;20104;-74
2022/08/10 00:10:46;;;;;;;4.57;3.17;;;;;;;;;;4995358;28;20571;-74
2022/08/10 00:13:12;;;;;;;3.47;2.60;;;;;;;;;;4985225;28;20386;-75
2022/08/10 00:15:38;;;;;;;2.88;2.67;;;;;;;;;;5014369;28;20046;-74
2022/08/10 00:18:05;;;;;;;4.63;2.95;;;;;;;;;;5014909;28;20054;-74
2022/08/10 00:20:31;;;;;;;4.15;2.80;;;;;;;;;;5014775;28;20077;-74
2022/08/10 00:22:58;;;;;;;3.00;2.63;;;;;;;;;;5014807;28;20061;-74
2022/08/10 00:25:24;;;;;;;2.97;2.67;;;;;;;;;;5014418;28;20113;-74
2022/08/10 00:27:50;;;;;;;2.63;2.38;;;;;;;;;;5014447;28;20617;-74
2022/08/10 00:30:16;;;;;;;3.72;2.88;;;;;;;;;;5014706;28;20041;-74
2022/08/10 00:32:42;;;;;;;4.18;2.83;;;;;;;;;;5014488;28;20369;-75
2022/08/10 00:35:08;;;;;;;5.85;2.78;;;;;;;;;;5014317;28;20037;-74
2022/08/10 00:37:34;;;;;;;3.28;2.80;;;;;;;;;;5015490;28;20050;-74
2022/08/10 00:40:01;;;;;;;7.07;2.88;;;;;;;;;;5014557;28;20045;-74
2022/08/10 00:42:27;;;;;;;3.00;2.60;;;;;;;;;;5015389;28;20499;-74
2022/08/10 00:44:53;;;;;;;3.08;2.63;;;;;;;;;;5013450;28;20041;-74
2022/08/10 00:47:20;;;;;;;3.67;2.78;;;;;;;;;;5014162;28;20048;-74
2022/08/10 00:49:46;;;;;;;4.22;2.75;;;;;;;;;;5015086;28;20057;-74
2022/08/10 00:52:13;;;;;;;5.72;2.67;;;;;;;;;;5014875;28;20129;-74
2022/08/10 00:54:40;;;;;;;3.75;2.97;;;;;;;;;;5013927;28;20125;-74
2022/08/10 00:57:06;;;;;;;3.35;2.60;;;;;;;;;;5015298;28;20065;-74
2022/08/10 00:59:32;;;;;;;3.30;2.33;;;;;;;;;;5014643;28;20045;-74
2022/08/10 01:01:59;;;;;;;5.32;2.97;;;;;;;;;;5015262;28;20053;-74
2022/08/10 01:04:25;;;;;;;5.25;2.63;;;;;;;;;;5014581;28;20038;-74
2022/08/10 01:06:58;;;;;;;4.28;2.70;;;;;;;;;;5015484;28;20042;-74
2022/08/10 01:09:43;;;;;;;3.90;2.50;;;;;;;;;;5014672;28;20048;-74
2022/08/10 01:12:14;;;;;;;4.45;3.20;;;;;;;;;;5014340;28;20040;-74
2022/08/10 01:14:40;;;;;;;2.92;2.63;;;;;;;;;;5014758;28;20042;-74
2022/08/10 01:17:10;;;;;;;3.03;2.50;;;;;;;;;;5014704;28;20045;-74
2022/08/10 01:19:56;;;;;;;2.67;2.47;;;;;;;;;;5014692;28;20045;-74
2022/08/10 01:22:25;;;;;;;2.97;2.78;;;;;;;;;;5014594;28;20042;-74
2022/08/10 01:25:10;;;;;;;3.13;2.90;;;;;;;;;;5003179;28;20073;-74
2022/08/10 01:27:56;;;;;;;3.28;2.97;;;;;;;;;;5014758;28;20100;-74
2022/08/10 01:30:24;;;;;;;4.32;2.88;;;;;;;;;;5004430;28;20073;-74
2022/08/10 01:32:53;;;;;;;4.75;3.20;;;;;;;;;;5014104;28;20045;-73
2022/08/10 01:35:22;;;;;;;3.10;2.90;;;;;;;;;;5014639;28;20042;-73
2022/08/10 01:38:09;;;;;;;4.88;2.70;;;;;;;;;;5013923;28;20077;-74
2022/08/10 01:40:38;;;;;;;3.05;2.85;;;;;;;;;;5015057;28;20116;-73
2022/08/10 01:43:05;;;;;;;3.95;2.80;;;;;;;;;;5013897;28;20042;-74
2022/08/10 01:45:32;;;;;;;3.25;2.90;;;;;;;;;;5013783;28;20030;-74
2022/08/10 01:50:50;;;;;;;4.35;3.05;;;;;;;;;;5013709;28;20037;-73
2022/08/10 01:53:21;;;;;;;4.32;2.40;;;;;;;;;;5013612;28;20037;-73
2022/08/10 01:55:50;;;;;;;2.97;2.58;;;;;;;;;;5013923;28;20060;-74
2022/08/10 01:58:20;;;;;;;3.03;2.70;;;;;;;;;;5017089;28;20128;-74
2022/08/10 02:00:50;;;;;;;4.45;2.70;;;;;;;;;;5017393;28;20042;-73
2022/08/10 02:03:19;;;;;;;3.38;2.50;;;;;;;;;;5016689;28;20042;-74
2022/08/10 02:05:49;;;;;;;2.65;2.45;;;;;;;;;;5017579;28;20042;-75
2022/08/10 02:08:18;;;;;;;4.90;2.78;;;;;;;;;;5017471;28;20085;-75
2022/08/10 02:10:46;;;;;;;6.50;2.83;;;;;;;;;;5017739;28;20124;-74
2022/08/10 02:13:16;;;;;;;3.08;2.75;;;;;;;;;;5016818;28;20038;-74
2022/08/10 02:15:45;;;;;;;3.80;2.80;;;;;;;;;;5017332;28;20041;-74
2022/08/10 02:18:12;;;;;;;4.75;2.88;;;17.80;99.90;;;;;;5017433;28;20058;-74
2022/08/10 02:20:46;;;;;;;3.50;2.70;;;18.10;1.00;;;;;;5016356;28;20029;-74
2022/08/10 02:23:27;;;;;;;3.58;3.10;;;18.20;1.00;;;;;;5012957;28;20041;-74
2022/08/10 02:25:55;;;;;;;2.75;2.55;;;17.90;1.00;;;;;;5016057;28;20049;-74
2022/08/10 02:28:24;;;;;;;3.53;2.70;;;17.80;1.00;;;;;;5015381;28;20096;-74
2022/08/10 02:30:53;;;;;;;2.92;2.67;;;17.90;1.00;;;;;;5016154;28;20049;-74
2022/08/10 02:33:22;;;;;;;3.17;2.83;;;17.80;1.00;;;;;;5016867;28;20026;-75
2022/08/10 02:35:49;;;;;;;2.60;2.40;;;17.90;1.00;;;;;;4999283;28;20401;-75
2022/08/10 02:38:20;;;;;;;2.90;2.65;;;17.90;1.00;;;;;;5015851;28;20547;-74
2022/08/10 02:40:52;;;;;;;3.67;2.78;;;17.70;1.00;;;;;;5016569;28;20034;-75
2022/08/10 02:43:32;;;;;;;2.70;2.50;;;17.70;1.00;;;;;;5016648;28;20030;-75
2022/08/10 02:46:04;;;;;;;3.03;2.50;;;17.70;1.00;;;;;;5016789;28;20049;-74
2022/08/10 02:48:33;;;;;;;3.28;2.72;;;;;;;;;;5016104;28;20136;-74
2022/08/10 02:51:23;;;;;;;3.55;2.85;;;17.40;1.00;;;;;;5016796;28;20389;-75
2022/08/10 02:53:57;;;;;;;3.10;2.80;;;;;;;;;;5016738;28;20034;-74
2022/08/10 02:56:29;;;;;;;7.18;3.15;;;;;;;;;;5016968;28;20120;-74
2022/08/10 02:58:59;;;;;;;4.05;3.00;;;17.60;1.00;;;;;;5016914;28;20045;-73
2022/08/10 03:01:30;;;;;;;5.72;2.85;;;;;;;;;;5016893;28;20042;-73
2022/08/10 03:04:03;;;;;;;3.30;3.00;;;17.50;1.00;;;;;;5017035;28;20072;-73
2022/08/10 03:06:40;;;;;;;4.03;2.60;;;;;;;;;;4999363;28;20064;-73
2022/08/10 03:09:09;;;;;;;5.45;2.63;;;;;;;;;;5016431;28;20057;-73
2022/08/10 03:11:38;;;;;;;3.80;2.90;;;;;;;;;;5016672;28;20044;-73
2022/08/10 03:14:06;;;;;;;3.33;2.97;;;;;;;;;;5016527;28;20038;-73
2022/08/10 03:16:33;;;;;;;3.10;2.80;;;;;;;;;;5016576;28;20042;-74
2022/08/10 03:19:03;;;;;;;2.88;2.33;;;17.00;1.00;;;;;;5015584;28;20045;-74
2022/08/10 03:21:30;;;;;;;4.00;2.92;;;17.10;1.00;;;;;;5016194;28;20037;-74
2022/08/10 03:24:01;;;;;;;2.70;2.50;;;17.30;1.00;;;;;;5016533;28;20104;-74
2022/08/10 03:26:30;;;;;;;3.20;2.58;;;17.20;1.00;;;;;;5015809;28;20117;-75
2022/08/10 03:28:58;;;;;;;6.13;2.60;;;17.10;1.00;;;;;;5015780;28;20123;-74
2022/08/10 03:31:27;;;;;;;3.10;2.75;;;;;;;;;;5016033;28;20519;-74
2022/08/10 03:33:54;;;;;;;4.63;3.13;;;;;;;;;;5016030;28;20104;-74
2022/08/10 03:36:20;;;;;;;2.70;2.50;;;16.80;1.00;;;;;;5016469;28;20125;-74
2022/08/10 03:38:50;;;;;;;5.35;2.67;;;16.80;1.00;;;;;;5015457;28;20042;-74
2022/08/10 03:41:28;;;;;;;3.20;2.63;;;16.80;1.00;;;;;;5015571;28;20034;-74
2022/08/10 03:43:55;;;;;;;2.88;2.65;;;16.80;1.00;;;;;;5016369;28;20034;-73
2022/08/10 03:46:24;;;;;;;3.33;2.83;;;17.00;1.00;;;;;;5016549;28;20084;-74
2022/08/10 03:48:54;;;;;;;7.43;2.65;;;16.80;1.00;;;;;;5014971;28;20440;-74
2022/08/10 03:51:22;;;;;;;2.93;2.63;;;16.60;1.00;;;;;;5015723;28;20060;-74
2022/08/10 03:53:49;;;;;;;4.28;2.80;;;;;;;;;;5015590;28;20038;-74
2022/08/10 03:56:16;;;;;;;2.80;2.60;;;;;;;;;;5015537;28;20046;-74
2022/08/10 03:58:43;;;;;;;3.85;2.90;;;;;;;;;;5015206;28;20077;-74
2022/08/10 04:01:09;;;;;;;3.10;2.80;;;;;;;;;;5015494;28;20037;-74
2022/08/10 04:03:36;;;;;;;5.30;2.85;;;;;;;;;;5014935;28;20033;-74
2022/08/10 04:06:03;;;;;;;3.63;2.70;;;;;;;;;;5015381;28;20048;-74
2022/08/10 04:08:31;;;;;;;3.08;2.58;;;16.40;1.00;;;;;;5015108;28;20057;-74
2022/08/10 04:10:57;;;;;;;6.22;2.95;;;16.50;1.00;;;;;;5015301;28;20040;-74
2022/08/10 04:13:24;;;;;;;3.38;3.08;;;;;;;;;;5015209;28;20066;-73
2022/08/10 04:15:50;;;;;;;3.05;2.85;;;;;;;;;;5014945;28;20148;-74
2022/08/10 04:18:17;;;;;;;4.95;2.92;;;;;;;;;;5014957;28;20053;-74
2022/08/10 04:20:51;;;;;;;4.35;3.00;;;16.00;1.00;;;;;;5014849;28;20076;-74
2022/08/10 04:23:26;;;;;;;5.75;2.90;;;16.20;1.00;;;;;;5015075;28;20109;-74
2022/08/10 04:25:53;;;;;;;3.50;2.38;;;16.00;1.00;;;;;;4995739;28;20104;-74
2022/08/10 04:28:19;;;;;;;5.13;2.95;;;;;;;;;;4995501;28;20045;-73
2022/08/10 04:30:46;;;;;;;4.85;2.97;;;;;;;;;;4995528;28;20053;-73
2022/08/10 04:33:16;;;;;;;2.92;2.72;;;16.40;1.00;;;;;;4994871;28;20038;-74
2022/08/10 04:35:45;;;;;;;4.65;2.70;;;;;;;;;;5012954;28;20134;-74
2022/08/10 04:38:12;;;;;;;4.15;2.90;;;16.00;1.00;;;;;;5015068;28;20053;-73
2022/08/10 04:40:39;;;;;;;3.03;2.83;;;16.20;1.00;;;;;;5014859;28;20069;-73
2022/08/10 04:43:06;;;;;;;6.50;2.65;;;16.00;1.00;;;;;;5014794;28;20040;-73
2022/08/10 04:45:33;;;;;;;5.93;3.28;;;;;;;;;;5013959;28;20417;-74
2022/08/10 04:48:00;;;;;;;4.72;3.05;;;;;;;;;;5014455;28;20132;-74
2022/08/10 04:50:26;;;;;;;8.48;3.05;;;;;;;;;;5014481;28;20041;-74
2022/08/10 04:52:54;;;;;;;5.30;2.60;;;16.10;1.00;;;;;;5014733;28;20133;-74
2022/08/10 04:55:23;;;;;;;3.67;3.10;;;;;;;;;;5014178;28;20037;-74
2022/08/10 04:57:51;;;;;;;4.05;2.80;;;;;;;;;;5014386;28;20042;-74
2022/08/10 05:00:19;;;;;;;9.73;2.88;;;;;;;;;;5014417;28;20124;-75
2022/08/10 05:02:45;;;;;;;6.05;2.60;;;;;;;;;;5014490;28;20037;-75
2022/08/10 05:05:12;;;;;;;4.47;2.80;;;;;;;;;;5014717;28;20128;-74
2022/08/10 05:07:38;;;;;;;5.32;2.92;;;;;;;;;;5014691;28;20046;-75
2022/08/10 05:10:04;;;;;;;5.20;3.17;;;;;;;;;;5013884;28;20136;-75
2022/08/10 05:12:30;;;;;;;3.70;2.60;;;;;;;;;;5014275;28;20042;-75
2022/08/10 05:14:57;;;;;;;3.10;2.45;;;;;;;;;;5014546;28;20037;-74
2022/08/10 05:17:23;;;;;;;3.35;2.90;;;;;;;;;;5014551;28;20041;-74
2022/08/10 05:19:49;;;;;;;3.08;2.78;;;;;;;;;;5013556;28;20045;-74
2022/08/10 05:22:15;;;;;;;2.75;2.55;;;;;;;;;;5014160;28;20088;-74
2022/08/10 05:24:42;;;;;;;4.25;2.95;;;;;;;;;;5014216;28;20120;-74
2022/08/10 05:27:08;;;;;;;3.05;2.70;;;;;;;;;;5014677;28;20107;-75
2022/08/10 05:29:34;;;;;;;4.20;2.90;;;;;;;;;;5013719;28;20045;-75
2022/08/10 05:32:00;;;;;;;3.08;2.80;;;;;;;;;;4998088;28;20392;-74
2022/08/10 05:34:28;;;;;;;4.28;2.80;;;;;;;;;;5018142;28;20049;-75
2022/08/10 05:36:55;;;;;;;2.92;2.60;;;;;;;;;;5017829;28;20038;-75
2022/08/10 05:39:24;;;;;;;4.18;2.78;;;;;;;;;;5017632;28;20149;-75
2022/08/10 05:41:52;;;;;;;4.32;2.80;;;;;;;;;;5018317;28;20038;-75
2022/08/10 05:44:19;;;;;;;5.15;2.97;;;;;;;;;;5017843;28;20042;-75
2022/08/10 05:46:45;;;;;;;3.22;2.67;;;;;;;;;;5018226;28;20076;-75
2022/08/10 05:49:11;;;;;;;3.17;2.80;;;;;;;;;;5017156;28;20081;-74
2022/08/10 05:51:37;;;;;;;3.65;2.92;;;;;;;;;;5018108;28;20121;-75
2022/08/10 05:54:11;;;;;;;2.90;2.70;;;;;;;;;;5017840;28;20463;-73
2022/08/10 05:56:38;;;;;;;3.92;2.67;;;;;;;;;;5017452;28;20044;-74
2022/08/10 05:59:04;;;;;;;3.00;2.80;;;;;;;;;;5016566;28;20378;-75
2022/08/10 06:01:31;;;;;;;4.80;2.97;;;;;;;;;;5017362;28;20596;-76
2022/08/10 06:03:58;;;;;;;3.03;2.72;;;;;;;;;;5016836;28;20046;-76
2022/08/10 06:06:25;;;;;;;4.78;2.85;;;;;;;;;;5016678;28;20457;-76
2022/08/10 06:08:52;;;;;;;8.20;3.13;;;;;;;;;;5017174;28;20054;-76
2022/08/10 06:11:18;;;;;;;3.97;2.88;;;;;;;;;;5017684;28;20041;-76
2022/08/10 06:16:34;;;;;;;3.22;2.78;;;;;;;;;;5016627;28;20475;-76
2022/08/10 06:19:01;;;;;;;3.20;2.65;;;;;;;;;;5017296;28;20046;-76
2022/08/10 06:21:28;;;;;;;3.85;2.72;;;;;;;;;;5017577;28;20048;-76
2022/08/10 06:23:54;;;;;;;2.97;2.67;;;;;;;;;;5016966;28;20519;-76
2022/08/10 06:26:21;;;;;;;4.85;2.60;;;;;;;;;;5016303;28;20181;-76
2022/08/10 06:29:01;;;;;;;3.00;2.70;;;;;;;;;;5016710;28;20050;-76
2022/08/10 06:31:28;;;;;;;3.28;2.88;;;;;;;;;;5016883;28;20068;-76
2022/08/10 06:33:55;;;;;;;11.77;2.97;;;;;;;;;;5016536;28;20038;-76
2022/08/10 06:36:22;;;;;;;7.75;3.10;;;;;;;;;;5017016;28;20041;-76
2022/08/10 06:38:49;;;;;;;3.28;2.95;;;;;;;;;;5016710;28;20528;-76
2022/08/10 06:41:18;;;;;;;3.22;3.00;;;;;;;;;;5016336;28;20516;-76
2022/08/10 06:43:47;;;;;;;3.05;2.55;;;;;;;;;;5016021;28;20042;-76
2022/08/10 06:46:15;;;;;;;4.55;2.90;;;;;;;;;;5016542;28;20046;-69
2022/08/10 06:48:46;;;;;;;6.07;2.90;;;;;;;;;;5015132;28;20065;-68
2022/08/10 06:51:13;;;;;;;8.65;2.85;;;;;;;;;;5016658;28;20037;-68
2022/08/10 06:53:45;;;;;;;5.88;2.72;;;;;;;;;;5015578;28;20041;-68
2022/08/10 06:56:14;;;;;;;4.90;2.80;;;;;;;;;;5014828;28;20053;-68
2022/08/10 06:58:46;;;;;;;3.00;2.72;;;;;;;;;;5014420;28;20112;-68
2022/08/10 07:01:15;;;;;;;5.68;2.75;;;;;;;;;;5016111;28;20038;-68
2022/08/10 07:03:50;;;;;;;6.50;3.08;;;;;;;;;;5016328;28;20049;-68
2022/08/10 07:06:18;;;;;;;3.25;3.05;;;;;;;;;;5016558;28;20046;-68
2022/08/10 07:08:45;;;;;;;5.50;3.05;;;;;;;;;;5015857;28;20045;-69
2022/08/10 07:11:11;;;;;;;4.60;2.80;;;;;;;;;;5014867;28;20065;-68
2022/08/10 07:13:38;;;;;;;4.60;3.15;;;;;;;;;;5015764;28;20030;-68
2022/08/10 07:16:09;;;;;;;5.68;3.42;;;;;;;;;;5015103;28;20045;-69
2022/08/10 07:18:36;;;;;;;7.45;3.58;;;;;;;;;;5014440;28;20413;-69
2022/08/10 07:21:02;;;;;;;9.25;4.78;;;;;;;;;;5015446;28;20477;-69
2022/08/10 07:23:29;;;;;;;7.93;3.70;;;;;;;;;;5014741;28;20042;-69
2022/08/10 07:25:57;;;;;;;5.22;3.38;;;;;;;;;;5012228;28;20573;-69
2022/08/10 07:28:23;;;;;;;3.80;3.45;;;;;;;;;;5006909;28;20042;-69
2022/08/10 07:30:51;;;;;;;5.20;3.85;;;;;;;;;;5015147;28;20101;-69
2022/08/10 07:33:19;;;;;;;4.63;3.65;;;;;;;;;;5015730;28;20116;-70
2022/08/10 07:35:45;;;;;;;4.72;3.70;;;;;;;;;;5014991;28;20404;-69
2022/08/10 07:38:16;;;;;;;4.18;3.30;;;;;;;;;;5015516;28;20046;-69
2022/08/10 07:40:42;;;;;;;;;;;;;;;;;;5015950;28;20050;-69
2022/08/10 07:43:08;;;;;;;4.97;3.45;;;;;;;;;;5015016;28;19915;-70
2022/08/10 07:45:35;;;;;;;4.25;3.85;;;;;;;;;;5016181;28;20496;-69
2022/08/10 07:48:02;;;;;;;5.30;4.03;;;;;;;;;;5014977;28;20057;-69
2022/08/10 07:50:30;;;;;;;5.20;3.30;;;;;;;;;;5015407;28;20140;-69
2022/08/10 07:52:59;;;;;;;4.72;3.72;;;;;;;;;;5015414;28;20045;-70
2022/08/10 07:55:25;;;;;;;4.28;3.58;;;;;;;;;;5014686;28;20124;-70
2022/08/10 07:57:53;;;;;;;5.72;4.03;;;;;;;;;;5015839;28;20045;-70
2022/08/10 08:00:20;;;;;;;4.15;3.80;;;;;;;;;;5015406;28;20044;-69
2022/08/10 08:02:49;;;;;;;10.05;3.88;;;;;;;;;;5014528;28;20042;-69
2022/08/10 08:05:16;;;;;;;5.28;3.53;;;;;;;;;;4995741;28;20049;-69
2022/08/10 08:07:45;;;;;;;4.55;3.20;;;;;;;;;;5005685;28;20096;-69
2022/08/10 08:10:12;;;;;;;3.22;2.92;;;;;;;;;;5014959;28;20103;-70
2022/08/10 08:12:39;;;;;;;4.60;2.47;;;;;;;;;;5014398;28;20046;-69
2022/08/10 08:15:06;;;;;;;4.25;2.90;;;;;;;;;;5015228;28;20041;-70
2022/08/10 08:17:33;;;;;;;6.55;3.13;;;;;;;;;;5015094;28;20131;-70
2022/08/10 08:20:00;;;;;;;7.60;3.08;;;;;;;;;;5014719;28;20076;-70
2022/08/10 08:22:27;;;;;;;12.48;3.08;;;;;;;;;;4997461;28;20447;-70
2022/08/10 08:24:55;;;;;;;5.18;2.92;;;;;;;;;;5014407;28;20046;-70
2022/08/10 08:27:23;;;;;;;3.75;2.47;;;;;;;;;;5014095;28;20077;-70
2022/08/10 08:29:50;;;;;;;6.18;2.42;;;;;;;;;;5012621;28;20139;-70
2022/08/10 08:32:18;;;;;;;5.05;2.35;;;;;;;;;;5013488;28;20073;-70
2022/08/10 08:34:46;;;;;;;4.55;2.28;;;;;;;;;;5014186;28;20041;-71
2022/08/10 08:37:14;;;;;;;3.55;2.10;;;;;;;;;;5013076;28;20073;-70
2022/08/10 08:39:41;;;;;;;3.38;2.42;;;;;;;;;;5012126;28;20046;-68
2022/08/10 08:42:25;;;;;;;5.50;2.03;;;;;;;;;;5013369;28;20449;-68
2022/08/10 08:44:54;;;;;;;4.97;2.33;;;;;;;;;;5013044;28;20524;-68
2022/08/10 08:47:46;;;;;;;4.65;2.50;;;;;;;;;;5013487;28;20052;-68
2022/08/10 08:50:24;;;;;;;3.17;1.75;;;;;;;;;;5013217;28;20045;-68
2022/08/10 08:52:53;;;;;;;2.20;2.00;;;;;;;;;;5014177;28;20481;-68
2022/08/10 08:55:46;;;;;;;2.55;2.00;;;;;;;;;;5012779;28;20504;-68
2022/08/10 08:58:26;;;;;;;4.57;2.00;;;;;;;;;;5008206;28;20132;-68
2022/08/10 09:00:55;;;;;;;4.55;2.25;;;;;;;;;;5012821;28;20041;-68
2022/08/10 09:03:27;;;;;;;2.40;2.00;;;;;;;;;;5012674;28;20045;-68
2022/08/10 09:06:12;;;;;;;2.78;1.95;;;;;;;;;;5008421;28;20552;-67
2022/08/10 09:08:44;;;;;;;2.58;2.10;;;;;;;;;;5015401;28;20056;-67
2022/08/10 09:11:23;;;;;;;3.80;2.13;;;;;;;;;;5017679;28;20042;-67
2022/08/10 09:13:49;;;;;;;2.45;2.13;;;;;;;;;;5017561;28;20084;-68
2022/08/10 09:16:15;;;;;;;3.67;2.33;;;;;;;;;;5016789;28;20408;-68
2022/08/10 09:18:47;;;;;;;2.28;1.90;;;;;;;;;;5008453;28;20046;-68
2022/08/10 09:21:32;;;;;;;3.38;2.10;;;;;;;;;;5017135;28;20408;-71
2022/08/10 09:24:06;;;;;;;4.85;2.13;;;;;;;;;;5013416;28;20039;-69
2022/08/10 09:26:42;;;;;;;5.43;1.80;;;;;;;;;;5014426;28;20042;-70
2022/08/10 09:29:09;;;;;;;6.30;2.28;;;;;;;;;;5016104;28;20057;-69
2022/08/10 09:31:46;;;;;;;2.85;2.00;;;;;;;;;;5017057;28;20044;-68
2022/08/10 09:34:15;;;;;;;4.70;2.10;;;;;;;;;;5016826;28;20044;-68
2022/08/10 09:36:50;;;;;;;2.45;2.13;;;;;;;;;;5017046;28;20034;-69
2022/08/10 09:39:22;;;;;;;2.80;2.15;;;;;;;;;;5016385;28;20046;-70
2022/08/10 09:41:56;;;;;;;3.35;2.13;;;;;;;;;;5016845;28;20053;-71
2022/08/10 09:44:32;;;;;;;4.57;2.17;;;;;;;;;;5016662;28;20041;-70
2022/08/10 09:47:04;;;;;;;6.55;2.28;;;;;;;;;;5013748;28;20046;-71
2022/08/10 09:49:37;;;;;;;2.42;2.22;;;;;;;;;;5009211;28;20140;-71
2022/08/10 09:52:18;;;;;;;5.22;2.53;;;;;;;;;;5010022;28;20050;-71
2022/08/10 09:54:44;;;;;;;;;;;;;;;;;;5006799;28;20049;-70
2022/08/10 09:57:23;;;;;;;5.43;2.38;;;;;;;;;;5009178;28;19945;-69
2022/08/10 09:59:52;;;;;;;5.65;2.55;;;;;;;;;;5003222;28;20060;-69
2022/08/10 10:02:29;;;;;;;2.92;2.10;;;;;;;;;;5010915;28;20164;-69
2022/08/10 10:05:35;;;;;;;3.35;2.30;;;;;;;;;;5012738;28;20038;-69
2022/08/10 10:08:05;;;;;;;3.28;2.42;;;;;;;;;;4937167;29;20372;-69
2022/08/10 10:10:49;;;;;;;10.90;2.47;;;;;;;;;;4996850;28;20505;-69
2022/08/10 10:13:29;;;;;;;3.45;2.20;;;;;;;;;;5010657;28;20045;-69
2022/08/10 10:16:21;;;;;;;2.80;2.53;;;;;;;;;;5010156;28;20029;-69
2022/08/10 10:18:58;;;;;;;5.82;2.30;;;;;;;;;;5008168;28;20069;-69
2022/08/10 10:21:32;;;;;;;3.95;2.40;;;;;;;;;;5008956;28;20080;-69
2022/08/10 10:24:07;;;;;;;4.15;2.38;;;;;;;;;;5006998;28;20077;-69
2022/08/10 10:26:47;;;;;;;6.38;2.20;;;;;;;;;;5005016;28;20038;-69
2022/08/10 10:29:33;;;;;;;9.05;2.72;;;;;;;;;;5009995;28;20096;-69
2022/08/10 10:32:11;;;;;;;3.42;2.90;;;;;;;;;;5009839;28;20040;-69
2022/08/10 10:34:46;;;;;;;3.95;2.17;;;;;;;;;;5008964;28;20038;-69
2022/08/10 10:37:17;;;;;;;4.15;2.15;;;;;;;;;;4991982;28;20057;-69
2022/08/10 10:39:48;;;;;;;2.50;2.17;;;;;;;;;;5010749;28;20057;-69
2022/08/10 10:42:33;;;;;;;2.30;2.10;;;;;;;;;;5008871;28;20038;-69
2022/08/10 10:45:03;;;;;;;2.25;2.03;;;;;;;;;;5011420;28;20159;-70
2022/08/10 10:47:46;;;;;;;5.03;1.95;;;;;;;;;;5013439;28;20524;-68
2022/08/10 10:50:19;;;;;;;5.32;2.13;;;;;;;;;;5014083;28;20061;-69
2022/08/10 10:52:46;;;;;;;6.30;2.55;;;;;;;;;;5013061;28;20038;-69
2022/08/10 10:55:18;;;;;;;5.45;2.20;;;;;;;;;;5010510;28;20117;-69
2022/08/10 10:57:58;;;;;;;3.15;2.20;;;;;;;;;;5014819;28;20037;-68
2022/08/10 11:00:28;;;;;;;3.25;2.03;;;;;;;;;;5009221;28;20092;-68
2022/08/10 11:02:57;;;;;;;3.05;1.80;;;;;;;;;;5006812;28;20065;-68
2022/08/10 11:05:33;;;;;;;5.13;2.08;;;;;;;;;;5014497;28;20037;-68
2022/08/10 11:08:12;;;;;;;1.98;1.85;;;;;;;;;;5012397;28;20044;-68
2022/08/10 11:10:45;;;;;;;4.85;1.98;;;;;;;;;;5011551;28;20057;-69
2022/08/10 11:13:16;;;;;;;5.90;2.40;;;;;;;;;;5009464;28;20049;-69
2022/08/10 11:16:02;;;;;;;2.70;2.05;;;;;;;;;;5013782;28;20042;-69
2022/08/10 11:18:49;;;;;;;2.67;2.08;;;;;;;;;;5011972;28;20053;-70
2022/08/10 11:21:20;;;;;;;2.75;2.10;;;;;;;;;;4983521;28;20038;-69
2022/08/10 11:24:05;;;;;;;2.35;2.15;;;;;;;;;;5014153;28;20555;-69
2022/08/10 11:26:51;;;;;;;2.63;2.15;;;;;;;;;;5013493;28;20087;-69
2022/08/10 11:29:20;;;;;;;2.80;2.05;;;;;;;;;;5014235;28;20054;-69
2022/08/10 11:31:48;;;;;;;8.95;2.40;;;;;;;;;;5013762;28;20046;-69
2022/08/10 11:34:43;;;;;;;2.15;1.90;;;;;;;;;;5014361;28;20034;-69
2022/08/10 11:37:29;;;;;;;8.57;2.58;;;;;;;;;;4993464;28;20129;-69
2022/08/10 11:40:08;;;;;;;4.50;2.22;;;;;;;;;;5013847;28;20121;-69
2022/08/10 11:42:43;;;;;;;3.38;2.10;;;;;;;;;;5009085;28;20054;-69
2022/08/10 11:45:15;;;;;;;7.60;2.30;;;;;;;;;;5013340;28;20041;-71
2022/08/10 11:47:56;;;;;;;2.42;2.10;;;;;;;;;;5013338;28;20085;-71
2022/08/10 11:50:30;;;;;;;5.10;2.38;;;;;;;;;;5012993;28;20053;-69
2022/08/10 11:53:09;;;;;;;3.05;2.30;;;;;;;;;;5007888;28;20128;-70
2022/08/10 11:55:35;;;;;;;5.38;2.17;;;;;;;;;;5012707;28;20053;-70
2022/08/10 11:59:55;;;;;;;3.35;2.38;;;;;;;;;;5014047;28;20050;-70
2022/08/10 12:01:00;;;;;;;7.53;2.17;;;;;;;;;;5014333;28;20508;-70
2022/08/10 12:03:27;;;;;;;4.93;2.17;;;;;;;;;;5013428;28;20041;-68
2022/08/10 12:05:54;;;;;;;7.82;2.20;;;;;;;;;;5013647;28;20096;-69
2022/08/10 12:08:22;;;;;;;3.78;2.03;;;;;;;;;;5007865;28;20034;-69
2022/08/10 12:10:48;;;;;;;3.15;2.28;;;;;;;;;;5013983;28;20100;-69
2022/08/10 12:13:18;;;;;;;3.95;2.13;;;;;;;;;;5005572;28;20124;-68
2022/08/10 12:15:58;;;;;;;11.10;2.50;;;;;;;;;;4995989;28;20121;-68
2022/08/10 12:18:30;;;;;;;5.15;2.40;;;;;;;;;;4995318;28;20277;-68
2022/08/10 12:21:02;;;;;;;12.20;3.00;;;;;;;;;;4994436;28;20038;-68
2022/08/10 12:23:47;;;;;;;9.57;2.80;;;;;;;;;;4994461;28;20062;-68
2022/08/10 12:26:15;;;;;;;4.55;2.47;;;;;;;;;;4994657;28;20049;-68
2022/08/10 12:28:42;;;;;;;5.05;2.75;;;;;;;;;;4995356;28;20084;-68
2022/08/10 12:31:10;;;;;;;6.30;2.50;;;;;;;;;;4995738;28;20050;-68
2022/08/10 12:33:49;;;;;;;5.47;2.63;;;;;;;;;;4995734;28;20170;-68
2022/08/10 12:36:28;;;;;;;6.80;2.67;;;;;;;;;;4995274;28;20053;-68
2022/08/10 12:39:06;;;;;;;6.15;2.72;;;;;;;;;;4996119;28;20112;-68
2022/08/10 12:41:45;;;;;;;3.90;2.58;;;;;;;;;;4994748;28;20165;-68
2022/08/10 12:44:15;;;;;;;5.28;2.60;;;;;;;;;;4995244;28;20042;-68
2022/08/10 12:46:49;;;;;;;4.37;2.60;;;;;;;;;;4995216;28;20561;-68
2022/08/10 12:49:31;;;;;;;8.85;2.70;;;;;;;;;;4995343;28;20141;-68
2022/08/10 12:52:17;;;;;;;5.13;2.75;;;;;;;;;;4994864;28;20093;-68
2022/08/10 12:54:44;;;;;;;5.05;2.25;;;;;;;;;;4994684;28;20144;-68
2022/08/10 12:57:10;;;;;;;3.83;2.45;;;;;;;;;;4995532;28;20050;-68
2022/08/10 12:59:50;;;;;;;6.20;2.70;;;;;;;;;;4994743;28;20117;-68
2022/08/10 13:02:22;;;;;;;4.43;2.40;;;;;;;;;;4995170;28;20043;-68
2022/08/10 13:04:50;;;;;;;2.92;2.15;;;;;;;;;;4994825;28;20053;-68
2022/08/10 13:07:22;;;;;;;4.55;2.38;;;;;;;;;;4995330;28;20047;-68
2022/08/10 13:09:48;;;;;;;3.22;2.38;;;;;;;;;;4994288;28;20050;-68
2022/08/10 13:12:16;;;;;;;2.33;2.13;;;;;;;;;;4995213;28;20516;-68
2022/08/10 13:14:47;;;;;;;3.83;2.30;;;;;;;;;;4994948;28;20474;-68
2022/08/10 13:17:14;;;;;;;3.88;2.70;;;;;;;;;;4994844;28;20136;-68
2022/08/10 13:19:41;;;;;;;3.42;2.40;;;;;;;;;;4995112;28;20520;-68
2022/08/10 13:22:07;;;;;;;4.18;2.50;;;;;;;;;;4994860;28;20109;-68
2022/08/10 13:24:39;;;;;;;4.65;2.55;;;;;;;;;;4995075;28;20159;-68
2022/08/10 13:27:07;;;;;;;4.10;2.50;;;;;;;;;;4994880;28;20069;-68
2022/08/10 13:29:38;;;;;;;2.78;2.50;;;;;;;;;;4994459;28;20050;-68
2022/08/10 13:32:06;;;;;;;3.78;2.20;;;;;;;;;;4994342;28;20129;-68
2022/08/10 13:34:34;;;;;;;5.30;2.08;;;;;;;;;;4994958;28;20486;-68
2022/08/10 13:37:02;;;;;;;3.58;2.45;;;;;;;;;;4995343;28;20044;-68
2022/08/10 13:39:36;;;;;;;2.80;1.80;;;;;;;;;;4994740;28;20112;-68
2022/08/10 13:42:03;;;;;;;3.45;2.33;;;;;;;;;;4994737;28;20120;-68
2022/08/10 13:44:31;;;;;;;5.35;2.05;;;;;;;;;;4994641;28;20062;-68
2022/08/10 13:46:58;;;;;;;5.30;2.40;;;;;;;;;;4994798;28;20077;-68
2022/08/10 13:49:27;;;;;;;2.22;2.10;;;;;;;;;;4995432;28;20058;-68
2022/08/10 13:51:53;;;;;;;6.55;2.55;;;;;;;;;;4995165;28;20038;-69
2022/08/10 13:54:21;;;;;;;4.20;2.28;;;;;;;;;;5016403;28;20108;-70
2022/08/10 13:56:48;;;;;;;6.25;2.28;;;;;;;;;;5018167;28;20071;-70
2022/08/10 13:59:15;;;;;;;6.22;2.10;;;;;;;;;;5017643;28;20045;-72
2022/08/10 14:01:45;;;;;;;4.22;2.08;;;;;;;;;;5017988;28;20048;-72
2022/08/10 14:04:13;;;;;;;3.25;2.10;;;;;;;;;;5018168;28;20052;-70
2022/08/10 14:06:40;;;;;;;4.10;2.20;;;;;;;;;;5018727;28;20049;-71
2022/08/10 14:09:08;;;;;;;3.65;2.30;;;;;;;;;;5017189;28;20054;-72
2022/08/10 14:11:36;;;;;;;3.83;2.17;;;;;;;;;;5018142;28;20038;-72
2022/08/10 14:14:23;;;;;;;3.60;2.40;;;;;;;;;;5017715;28;20050;-72
2022/08/10 14:16:50;;;;;;;2.33;2.13;;;;;;;;;;5017900;28;20481;-72
2022/08/10 14:19:18;;;;;;;2.70;2.50;;;;;;;;;;5017679;28;20496;-72
2022/08/10 14:21:44;;;;;;;5.07;2.45;;;;;;;;;;5017111;28;20152;-72
2022/08/10 14:24:27;;;;;;;6.95;2.40;;;;;;;;;;5017596;28;20173;-72
2022/08/10 14:26:58;;;;;;;3.35;2.40;;;;;;;;;;5017978;28;20084;-72
2022/08/10 14:29:25;;;;;;;4.00;2.60;;;;;;;;;;5017416;28;20050;-72
2022/08/10 14:31:51;;;;;;;3.65;2.28;;;;;;;;;;5017088;28;20048;-71
2022/08/10 14:34:19;;;;;;;3.83;2.40;;;;;;;;;;5017367;28;20188;-71
2022/08/10 14:36:45;;;;;;;4.20;2.80;;;;;;;;;;5017894;28;20045;-70
2022/08/10 14:39:25;;;;;;;6.13;2.60;;;;;;;;;;5017151;28;20045;-70
2022/08/10 14:41:53;;;;;;;2.42;2.22;;;;;;;;;;5017280;28;20052;-70
2022/08/10 14:44:20;;;;;;;3.45;2.35;;;;;;;;;;5017211;28;20091;-70
2022/08/10 14:46:48;;;;;;;4.10;2.38;;;;;;;;;;5017311;28;20037;-73
2022/08/10 14:49:15;;;;;;;2.53;2.20;;;;;;;;;;5017013;28;20057;-71
2022/08/10 14:51:43;;;;;;;5.45;2.45;;;;;;;;;;5016657;28;20045;-70
2022/08/10 14:54:14;;;;;;;4.07;2.20;;;;;;;;;;5016785;28;20038;-71
2022/08/10 14:56:41;;;;;;;3.45;1.88;;;;;;;;;;5016808;28;20044;-71